createdAt,value
2019-05-30T00:00:28.683Z,68.62
2019-05-30T00:03:02.348Z,68.74
2019-05-30T00:05:34.971Z,68.98
2019-05-30T00:08:07.644Z,69.24
2019-05-30T00:10:40.325Z,69.72
2019-05-30T00:13:12.623Z,69.78
2019-05-30T00:15:45.947Z,70.05
2019-05-30T00:18:17.989Z,70.35
2019-05-30T00:20:50.015Z,70.44
2019-05-30T00:23:22.183Z,70.82
2019-05-30T00:25:55.310Z,71.22
2019-05-30T00:28:27.419Z,71.00
2019-05-30T00:31:00.184Z,70.90
2019-05-30T00:33:32.243Z,70.37
2019-05-30T00:36:04.268Z,70.23
2019-05-30T00:38:36.622Z,69.68
2019-05-30T00:41:10.339Z,69.56
2019-05-30T00:43:43.583Z,69.44
2019-05-30T00:46:17.731Z,69.73
2019-05-30T00:48:50.207Z,69.45
2019-05-30T00:51:23.201Z,69.41
2019-05-30T00:53:54.953Z,69.29
2019-05-30T00:56:27.430Z,69.19
2019-05-30T00:59:00.586Z,69.17
2019-05-30T01:01:32.914Z,69.19
2019-05-30T01:04:05.429Z,69.30
2019-05-30T01:06:37.219Z,69.52
2019-05-30T01:09:10.211Z,69.16
2019-05-30T01:11:41.899Z,69.11
2019-05-30T01:14:14.645Z,69.39
2019-05-30T01:16:47.423Z,69.57
2019-05-30T01:19:21.233Z,69.76
2019-05-30T01:21:54.011Z,70.05
2019-05-30T01:24:26.487Z,70.26
2019-05-30T01:26:59.262Z,69.81
2019-05-30T01:29:31.541Z,69.78
2019-05-30T01:32:05.600Z,70.09
2019-05-30T01:34:39.047Z,69.76
2019-05-30T01:37:11.931Z,69.84
2019-05-30T01:39:43.500Z,69.77
2019-05-30T01:42:15.459Z,69.74
2019-05-30T01:44:47.424Z,69.60
2019-05-30T01:47:19.377Z,69.65
2019-05-30T01:49:51.847Z,69.53
2019-05-30T01:52:23.504Z,69.65
2019-05-30T01:54:55.254Z,69.96
2019-05-30T01:57:27.630Z,69.89
2019-05-30T02:00:00.697Z,70.44
2019-05-30T02:02:32.169Z,70.49
2019-05-30T02:05:07.568Z,70.04
2019-05-30T02:07:39.482Z,69.80
2019-05-30T02:10:11.752Z,69.86
2019-05-30T02:12:43.919Z,69.47
2019-05-30T02:15:17.070Z,69.68
2019-05-30T02:17:49.171Z,69.47
2019-05-30T02:20:23.403Z,69.54
2019-05-30T02:22:54.977Z,69.08
2019-05-30T02:25:26.700Z,69.15
2019-05-30T02:27:58.560Z,69.02
2019-05-30T02:30:30.445Z,68.97
2019-05-30T02:33:02.917Z,69.23
2019-05-30T02:35:34.854Z,68.93
2019-05-30T02:38:07.359Z,69.31
2019-05-30T02:40:39.805Z,68.85
2019-05-30T02:43:13.399Z,69.20
2019-05-30T02:45:48.851Z,68.29
2019-05-30T02:48:20.511Z,68.00
2019-05-30T02:50:52.839Z,67.50
2019-05-30T02:53:25.449Z,67.76
2019-05-30T02:55:58.130Z,67.02
2019-05-30T02:58:30.608Z,66.13
2019-05-30T03:01:04.499Z,66.16
2019-05-30T03:03:37.607Z,65.60
2019-05-30T03:06:11.836Z,65.07
2019-05-30T03:08:43.994Z,63.92
2019-05-30T03:11:15.872Z,59.53
2019-05-30T03:13:47.829Z,56.73
2019-05-30T03:16:19.683Z,53.37
2019-05-30T03:18:53.372Z,52.75
2019-05-30T03:21:26.666Z,52.53
2019-05-30T03:23:59.345Z,52.13
2019-05-30T03:26:33.664Z,53.22
2019-05-30T03:29:07.133Z,57.39
2019-05-30T03:31:42.024Z,60.40
2019-05-30T03:34:26.205Z,58.89
2019-05-30T03:36:47.371Z,55.02
2019-05-30T03:39:19.107Z,50.26
2019-05-30T03:41:50.869Z,49.70
2019-05-30T03:44:22.944Z,49.89
2019-05-30T03:46:58.190Z,46.40
2019-05-30T03:49:33.305Z,45.20
2019-05-30T03:52:10.614Z,44.28
2019-05-30T03:54:44.246Z,45.58
2019-05-30T03:57:21.788Z,45.49
2019-05-30T04:00:03.042Z,44.17
2019-05-30T04:02:57.082Z,43.85
2019-05-30T04:05:22.253Z,42.81
2019-05-30T04:07:58.622Z,44.29
2019-05-30T04:10:33.256Z,42.11
2019-05-30T04:13:17.766Z,39.71
2019-05-30T04:15:49.254Z,42.27
2019-05-30T04:18:21.820Z,42.30
2019-05-30T04:20:54.822Z,42.30
2019-05-30T04:23:28.215Z,44.26
2019-05-30T04:26:01.819Z,43.59
2019-05-30T04:28:35.310Z,40.23
2019-05-30T04:31:08.115Z,39.41
2019-05-30T04:33:39.859Z,40.18
2019-05-30T04:36:12.489Z,38.82
2019-05-30T04:38:44.397Z,37.44
2019-05-30T04:41:19.087Z,41.42
2019-05-30T04:43:50.465Z,38.30
2019-05-30T04:46:22.191Z,40.76
2019-05-30T04:48:54.109Z,41.79
2019-05-30T04:51:26.049Z,42.08
2019-05-30T04:53:59.150Z,39.68
2019-05-30T04:56:32.429Z,38.50
2019-05-30T04:59:08.016Z,39.60
2019-05-30T05:01:41.168Z,39.71
2019-05-30T05:04:17.744Z,38.70
2019-05-30T05:06:50.320Z,39.51
2019-05-30T05:09:26.501Z,42.21
2019-05-30T05:11:59.898Z,38.98
2019-05-30T05:14:33.995Z,37.32
2019-05-30T05:17:06.293Z,35.05
2019-05-30T05:19:40.315Z,38.36
2019-05-30T05:22:12.856Z,38.92
2019-05-30T05:24:51.459Z,36.55
2019-05-30T05:27:24.163Z,36.85
2019-05-30T05:29:56.629Z,35.51
2019-05-30T05:32:29.489Z,35.60
2019-05-30T05:35:01.978Z,35.46
2019-05-30T05:37:34.447Z,35.79
2019-05-30T05:40:09.482Z,35.02
2019-05-30T05:42:41.559Z,37.94
2019-05-30T05:45:14.569Z,33.69
2019-05-30T05:47:46.702Z,33.37
2019-05-30T05:50:20.487Z,33.79
2019-05-30T05:52:52.678Z,36.41
2019-05-30T05:55:25.144Z,35.79
2019-05-30T05:57:57.243Z,35.18
2019-05-30T06:00:30.221Z,38.15
2019-05-30T06:03:02.374Z,35.14
2019-05-30T06:05:34.456Z,37.13
2019-05-30T06:08:07.527Z,36.18
2019-05-30T06:10:40.004Z,36.68
2019-05-30T06:13:14.420Z,39.49
2019-05-30T06:15:46.644Z,38.06
2019-05-30T06:18:20.148Z,35.96
2019-05-30T06:20:52.357Z,36.72
2019-05-30T06:23:25.712Z,38.18
2019-05-30T06:25:59.658Z,38.40
2019-05-30T06:28:32.129Z,36.18
2019-05-30T06:31:04.506Z,35.11
2019-05-30T06:33:37.909Z,37.96
2019-05-30T06:36:10.374Z,37.39
2019-05-30T06:38:44.484Z,35.31
2019-05-30T06:41:16.762Z,34.79
2019-05-30T06:43:54.577Z,34.34
2019-05-30T06:46:28.392Z,34.17
2019-05-30T06:49:00.749Z,37.60
2019-05-30T06:51:33.351Z,38.18
2019-05-30T06:54:05.593Z,38.72
2019-05-30T06:56:37.963Z,36.51
2019-05-30T06:59:11.346Z,37.54
2019-05-30T07:01:43.415Z,37.18
2019-05-30T07:04:16.215Z,37.54
2019-05-30T07:06:49.428Z,39.93
2019-05-30T07:09:20.879Z,39.03
2019-05-30T07:11:52.593Z,41.84
2019-05-30T07:14:25.245Z,42.38
2019-05-30T07:16:57.032Z,40.19
2019-05-30T07:19:29.540Z,39.89
2019-05-30T07:22:01.475Z,40.23
2019-05-30T07:24:33.911Z,40.68
2019-05-30T07:27:05.502Z,40.75
2019-05-30T07:29:38.790Z,40.15
2019-05-30T07:32:13.309Z,39.70
2019-05-30T07:34:46.039Z,38.82
2019-05-30T07:37:17.035Z,40.84
2019-05-30T07:39:50.534Z,41.46
2019-05-30T07:42:22.191Z,41.53
2019-05-30T07:44:55.996Z,41.92
2019-05-30T07:47:28.159Z,40.16
2019-05-30T07:50:00.140Z,39.89
2019-05-30T07:52:33.120Z,39.30
2019-05-30T07:55:09.042Z,41.62
2019-05-30T07:57:41.631Z,39.90
2019-05-30T08:00:15.761Z,41.13
2019-05-30T08:02:48.133Z,39.87
2019-05-30T08:05:24.609Z,40.19
2019-05-30T08:07:57.069Z,40.10
2019-05-30T08:10:32.051Z,39.41
2019-05-30T08:13:03.845Z,40.43
2019-05-30T08:15:42.952Z,40.28
2019-05-30T08:18:10.145Z,38.94
2019-05-30T08:20:42.105Z,39.91
2019-05-30T08:23:14.276Z,40.47
2019-05-30T08:25:46.249Z,40.08
2019-05-30T08:28:17.998Z,38.96
2019-05-30T08:30:51.298Z,39.44
2019-05-30T08:33:22.844Z,39.89
2019-05-30T08:35:54.706Z,38.47
2019-05-30T08:38:26.337Z,38.78
2019-05-30T08:40:58.223Z,38.12
2019-05-30T08:43:31.222Z,38.88
2019-05-30T08:46:02.862Z,37.20
2019-05-30T08:48:36.147Z,36.23
2019-05-30T08:51:07.809Z,37.24
2019-05-30T08:53:40.675Z,37.36
2019-05-30T08:56:12.895Z,37.05
2019-05-30T08:58:44.723Z,37.75
2019-05-30T09:01:16.780Z,37.23
2019-05-30T09:03:48.539Z,38.18
2019-05-30T09:06:20.508Z,37.10
2019-05-30T09:08:52.363Z,35.80
2019-05-30T09:11:25.123Z,35.99
2019-05-30T09:13:57.517Z,35.71
2019-05-30T09:16:29.972Z,35.52
2019-05-30T09:19:02.161Z,35.18
2019-05-30T09:21:34.635Z,35.47
2019-05-30T09:24:06.633Z,36.96
2019-05-30T09:26:38.988Z,37.81
2019-05-30T09:29:11.339Z,39.23
2019-05-30T09:31:44.478Z,37.54
2019-05-30T09:34:16.239Z,36.98
2019-05-30T09:36:49.891Z,36.54
2019-05-30T09:39:22.063Z,36.71
2019-05-30T09:41:54.440Z,34.98
2019-05-30T09:44:26.905Z,35.15
2019-05-30T09:46:59.271Z,36.68
2019-05-30T09:49:32.071Z,38.28
2019-05-30T09:52:05.362Z,39.20
2019-05-30T09:54:36.799Z,38.06
2019-05-30T09:57:09.277Z,38.61
2019-05-30T09:59:41.802Z,37.94
2019-05-30T10:02:14.942Z,37.67
2019-05-30T10:04:48.952Z,38.77
2019-05-30T10:07:22.248Z,38.17
2019-05-30T10:09:54.619Z,36.49
2019-05-30T10:12:27.097Z,37.32
2019-05-30T10:14:58.855Z,36.43
2019-05-30T10:17:32.538Z,36.25
2019-05-30T10:20:07.471Z,35.28
2019-05-30T10:22:39.453Z,35.71
2019-05-30T10:25:12.652Z,36.47
2019-05-30T10:27:46.250Z,36.85
2019-05-30T10:30:19.572Z,37.49
2019-05-30T10:32:52.086Z,36.86
2019-05-30T10:35:25.098Z,36.84
2019-05-30T10:37:57.583Z,36.07
2019-05-30T10:40:32.048Z,35.59
2019-05-30T10:43:03.590Z,36.25
2019-05-30T10:45:38.502Z,36.53
2019-05-30T10:48:08.806Z,37.06
2019-05-30T10:50:41.178Z,37.93
2019-05-30T10:53:14.009Z,38.55
2019-05-30T10:55:46.949Z,37.83
2019-05-30T10:58:19.520Z,37.59
2019-05-30T11:00:57.816Z,37.51
2019-05-30T11:03:30.148Z,36.14
2019-05-30T11:06:20.195Z,35.27
2019-05-30T11:08:54.798Z,36.60
2019-05-30T11:11:28.993Z,36.70
2019-05-30T11:14:00.848Z,37.62
2019-05-30T11:16:32.897Z,37.12
2019-05-30T11:19:07.661Z,38.33
2019-05-30T11:21:41.659Z,38.04
2019-05-30T11:24:15.668Z,38.30
2019-05-30T11:26:48.762Z,36.32
2019-05-30T11:29:21.431Z,35.44
2019-05-30T11:31:52.978Z,34.11
2019-05-30T11:34:26.104Z,33.73
2019-05-30T11:36:59.350Z,34.60
2019-05-30T11:39:31.888Z,35.36
2019-05-30T11:42:03.697Z,36.12
2019-05-30T11:44:35.831Z,35.22
2019-05-30T11:47:09.097Z,35.20
2019-05-30T11:49:41.165Z,35.37
2019-05-30T11:52:14.672Z,36.40
2019-05-30T11:54:46.157Z,37.56
2019-05-30T11:57:17.561Z,38.09
2019-05-30T11:59:50.098Z,38.42
2019-05-30T12:02:21.638Z,37.72
2019-05-30T12:04:55.256Z,37.31
2019-05-30T12:07:35.753Z,38.15
2019-05-30T12:10:01.060Z,38.01
2019-05-30T12:12:32.972Z,37.05
2019-05-30T12:15:09.797Z,38.51
2019-05-30T12:17:41.260Z,38.35
2019-05-30T12:20:15.924Z,39.26
2019-05-30T12:22:51.892Z,37.77
2019-05-30T12:25:23.892Z,37.76
2019-05-30T12:27:56.110Z,36.78
2019-05-30T12:30:32.420Z,37.20
2019-05-30T12:33:04.607Z,38.76
2019-05-30T12:35:37.776Z,40.26
2019-05-30T12:38:09.351Z,41.04
2019-05-30T12:40:41.106Z,41.06
2019-05-30T12:43:12.964Z,40.88
2019-05-30T12:45:45.540Z,41.37
2019-05-30T12:48:18.329Z,41.20
2019-05-30T12:50:53.079Z,42.25
2019-05-30T12:53:24.821Z,42.10
2019-05-30T12:55:56.875Z,40.68
2019-05-30T12:58:28.505Z,40.83
2019-05-30T13:01:00.856Z,40.76
2019-05-30T13:03:32.668Z,40.24
2019-05-30T13:06:05.240Z,39.21
2019-05-30T13:08:37.607Z,39.52
2019-05-30T13:11:09.877Z,39.92
2019-05-30T13:13:43.289Z,38.37
2019-05-30T13:16:15.043Z,40.46
2019-05-30T13:18:46.942Z,40.98
2019-05-30T13:21:18.646Z,39.97
2019-05-30T13:23:50.637Z,40.11
2019-05-30T13:26:23.085Z,40.22
2019-05-30T13:28:56.108Z,39.82
2019-05-30T13:31:27.729Z,38.23
2019-05-30T13:34:00.941Z,38.56
2019-05-30T13:36:32.572Z,39.24
2019-05-30T13:39:05.333Z,38.91
2019-05-30T13:41:37.019Z,38.33
2019-05-30T13:44:09.815Z,38.31
2019-05-30T13:46:42.024Z,38.39
2019-05-30T13:49:15.258Z,37.96
2019-05-30T13:51:51.546Z,37.90
2019-05-30T13:54:23.929Z,39.84
2019-05-30T13:56:59.430Z,41.24
2019-05-30T13:59:33.009Z,41.34
2019-05-30T14:02:06.035Z,41.36
2019-05-30T14:04:37.560Z,42.93
2019-05-30T14:07:10.511Z,42.88
2019-05-30T14:09:42.382Z,43.35
2019-05-30T14:12:14.770Z,42.66
2019-05-30T14:14:47.055Z,43.81
2019-05-30T14:17:20.322Z,43.25
2019-05-30T14:19:51.830Z,42.26
2019-05-30T14:22:23.301Z,41.77
2019-05-30T14:24:55.050Z,42.32
2019-05-30T14:27:26.481Z,42.55
2019-05-30T14:29:59.704Z,42.57
2019-05-30T14:32:31.570Z,42.70
2019-05-30T14:35:04.104Z,43.18
2019-05-30T14:37:35.468Z,42.32
2019-05-30T14:40:11.376Z,43.02
2019-05-30T14:42:42.920Z,42.94
2019-05-30T14:45:19.318Z,43.24
2019-05-30T14:47:54.329Z,43.29
2019-05-30T14:50:26.272Z,43.71
2019-05-30T14:52:57.659Z,43.82
2019-05-30T14:55:29.970Z,45.12
2019-05-30T14:58:03.185Z,43.78
2019-05-30T15:00:34.622Z,42.38
2019-05-30T15:03:12.424Z,42.51
2019-05-30T15:05:41.550Z,42.34
2019-05-30T15:08:15.302Z,42.96
2019-05-30T15:10:46.705Z,41.80
2019-05-30T15:13:18.241Z,42.66
2019-05-30T15:15:49.843Z,41.35
2019-05-30T15:18:21.277Z,41.44
2019-05-30T15:20:52.828Z,42.14
2019-05-30T15:23:24.269Z,41.99
2019-05-30T15:25:55.742Z,41.41
2019-05-30T15:28:28.687Z,41.17
2019-05-30T15:31:00.961Z,41.19
2019-05-30T15:33:34.791Z,41.77
2019-05-30T15:36:07.051Z,41.19
2019-05-30T15:38:39.663Z,41.11
2019-05-30T15:41:13.219Z,40.52
2019-05-30T15:43:44.830Z,41.60
2019-05-30T15:46:16.529Z,41.88
2019-05-30T15:48:53.556Z,42.34
2019-05-30T15:51:24.983Z,42.31
2019-05-30T15:53:58.139Z,42.88
2019-05-30T15:56:31.136Z,42.28
2019-05-30T15:59:02.597Z,41.98
2019-05-30T16:01:36.067Z,42.29
2019-05-30T16:04:08.635Z,42.35
2019-05-30T16:06:44.086Z,42.48
2019-05-30T16:09:16.764Z,42.66
2019-05-30T16:11:48.929Z,43.15
2019-05-30T16:14:21.584Z,43.80
2019-05-30T16:16:53.176Z,44.71
2019-05-30T16:19:26.577Z,45.32
2019-05-30T16:21:58.413Z,45.84
2019-05-30T16:24:29.941Z,46.92
2019-05-30T16:27:01.583Z,46.70
2019-05-30T16:29:37.029Z,46.96
2019-05-30T16:32:08.659Z,47.44
2019-05-30T16:34:40.094Z,48.36
2019-05-30T16:37:11.789Z,48.52
2019-05-30T16:39:45.488Z,48.94
2019-05-30T16:42:20.085Z,48.91
2019-05-30T16:44:54.747Z,49.20
2019-05-30T16:47:26.685Z,49.63
2019-05-30T16:49:59.596Z,50.57
2019-05-30T16:52:32.167Z,51.27
2019-05-30T16:55:06.238Z,52.22
2019-05-30T16:57:38.346Z,52.97
2019-05-30T17:00:12.500Z,53.27
2019-05-30T17:02:44.319Z,53.21
2019-05-30T17:05:16.692Z,53.64
2019-05-30T17:07:48.868Z,54.46
2019-05-30T17:10:26.479Z,55.06
2019-05-30T17:12:54.116Z,54.70
2019-05-30T17:15:27.912Z,55.18
2019-05-30T17:18:00.805Z,56.05
2019-05-30T17:20:32.978Z,55.95
2019-05-30T17:23:04.951Z,56.99
2019-05-30T17:25:36.794Z,57.06
2019-05-30T17:28:08.971Z,57.18
2019-05-30T17:30:41.339Z,57.25
2019-05-30T17:33:13.198Z,57.37
2019-05-30T17:35:45.675Z,58.08
2019-05-30T17:38:20.417Z,58.49
2019-05-30T17:40:52.009Z,58.49
2019-05-30T17:43:24.942Z,58.94
2019-05-30T17:45:56.693Z,59.17
2019-05-30T17:48:29.665Z,59.38
2019-05-30T17:51:01.646Z,59.79
2019-05-30T17:53:33.516Z,59.73
2019-05-30T17:56:05.465Z,59.66
2019-05-30T17:58:37.329Z,60.03
2019-05-30T18:01:09.293Z,60.39
2019-05-30T18:03:41.864Z,60.54
2019-05-30T18:06:13.621Z,61.13
2019-05-30T18:08:45.525Z,61.10
2019-05-30T18:11:17.341Z,61.38
2019-05-30T18:13:49.826Z,61.50
2019-05-30T18:16:23.052Z,61.41
2019-05-30T18:18:54.839Z,61.43
2019-05-30T18:21:27.472Z,61.30
2019-05-30T18:23:59.248Z,61.63
2019-05-30T18:26:31.896Z,61.84
2019-05-30T18:29:03.544Z,62.31
2019-05-30T18:31:35.298Z,62.69
2019-05-30T18:34:07.872Z,62.65
2019-05-30T18:36:39.842Z,62.34
2019-05-30T18:39:11.667Z,62.32
2019-05-30T18:41:43.660Z,62.20
2019-05-30T18:44:16.547Z,60.71
2019-05-30T18:46:49.226Z,61.73
2019-05-30T18:49:24.961Z,61.36
2019-05-30T18:51:56.836Z,61.30
2019-05-30T18:54:30.657Z,62.43
2019-05-30T18:57:02.607Z,60.83
2019-05-30T18:59:37.419Z,61.59
2019-05-30T19:02:09.197Z,60.36
2019-05-30T19:04:40.849Z,57.47
2019-05-30T19:07:14.351Z,56.16
2019-05-30T19:09:46.814Z,57.33
2019-05-30T19:12:28.051Z,58.23
2019-05-30T19:15:03.868Z,58.35
2019-05-30T19:17:36.636Z,59.04
2019-05-30T19:20:09.614Z,59.35
2019-05-30T19:22:43.434Z,60.53
2019-05-30T19:25:15.280Z,61.79
2019-05-30T19:27:47.052Z,61.48
2019-05-30T19:30:19.178Z,60.93
2019-05-30T19:32:50.767Z,62.36
2019-05-30T19:35:24.466Z,62.88
2019-05-30T19:37:56.855Z,62.91
2019-05-30T19:40:29.493Z,62.63
2019-05-30T19:43:02.721Z,62.48
2019-05-30T19:45:36.515Z,62.25
2019-05-30T19:48:09.534Z,62.27
2019-05-30T19:50:41.746Z,60.53
2019-05-30T19:53:17.829Z,60.62
2019-05-30T19:55:51.530Z,60.43
2019-05-30T19:58:23.563Z,59.58
2019-05-30T20:00:58.881Z,58.41
2019-05-30T20:03:39.510Z,58.09
2019-05-30T20:06:05.024Z,58.16
2019-05-30T20:08:53.325Z,58.87
2019-05-30T20:11:10.705Z,58.87
2019-05-30T20:13:42.989Z,59.44
2019-05-30T20:16:15.372Z,58.48
2019-05-30T20:18:48.003Z,58.93
2019-05-30T20:21:19.964Z,59.83
2019-05-30T20:23:56.458Z,59.24
2019-05-30T20:26:27.531Z,60.51
2019-05-30T20:29:00.873Z,60.50
2019-05-30T20:31:33.562Z,60.39
2019-05-30T20:34:05.534Z,61.17
2019-05-30T20:36:38.491Z,61.63
2019-05-30T20:39:12.306Z,62.60
2019-05-30T20:41:47.154Z,62.90
2019-05-30T20:44:19.535Z,62.73
2019-05-30T20:46:52.966Z,61.99
2019-05-30T20:49:24.555Z,62.63
2019-05-30T20:51:57.961Z,63.34
2019-05-30T20:54:29.711Z,62.85
2019-05-30T20:57:02.799Z,63.32
2019-05-30T20:59:34.967Z,63.21
2019-05-30T21:02:07.961Z,63.37
2019-05-30T21:04:40.935Z,62.40
2019-05-30T21:07:12.908Z,62.00
2019-05-30T21:09:46.223Z,62.07
2019-05-30T21:12:36.402Z,61.79
2019-05-30T21:14:54.680Z,61.75
2019-05-30T21:17:28.846Z,61.40
2019-05-30T21:20:03.269Z,61.08
2019-05-30T21:22:36.495Z,61.12
2019-05-30T21:25:08.726Z,61.42
2019-05-30T21:27:40.920Z,61.12
2019-05-30T21:30:13.722Z,61.24
2019-05-30T21:32:48.077Z,60.51
2019-05-30T21:35:20.248Z,60.25
2019-05-30T21:37:55.709Z,59.17
2019-05-30T21:40:27.978Z,58.50
2019-05-30T21:43:06.380Z,58.07
2019-05-30T21:45:33.542Z,58.76
2019-05-30T21:48:06.423Z,59.11
2019-05-30T21:50:39.280Z,58.49
2019-05-30T21:53:12.909Z,58.78
2019-05-30T21:55:46.049Z,58.42
2019-05-30T21:58:17.813Z,58.82
2019-05-30T22:00:58.666Z,59.16
2019-05-30T22:03:33.154Z,59.17
2019-05-30T22:06:05.015Z,59.90
2019-05-30T22:08:36.570Z,59.04
2019-05-30T22:11:08.532Z,58.41
2019-05-30T22:13:41.474Z,58.38
2019-05-30T22:16:13.167Z,57.92
2019-05-30T22:18:48.072Z,57.61
2019-05-30T22:21:20.368Z,57.98
2019-05-30T22:23:52.588Z,57.89
2019-05-30T22:26:26.057Z,58.14
2019-05-30T22:28:58.417Z,58.38
2019-05-30T22:31:31.190Z,58.52
2019-05-30T22:34:04.381Z,58.59
2019-05-30T22:36:37.171Z,58.68
2019-05-30T22:39:10.765Z,59.15
2019-05-30T22:41:43.832Z,59.71
2019-05-30T22:44:15.710Z,60.11
2019-05-30T22:46:48.106Z,60.20
2019-05-30T22:49:20.868Z,60.35
2019-05-30T22:51:53.209Z,60.89
2019-05-30T22:54:25.821Z,60.96
2019-05-30T22:57:01.078Z,59.41
2019-05-30T22:59:31.278Z,59.23
2019-05-30T23:02:03.137Z,58.86
2019-05-30T23:04:35.840Z,58.49
2019-05-30T23:07:07.986Z,58.78
2019-05-30T23:09:40.362Z,58.90
2019-05-30T23:12:12.423Z,57.99
2019-05-30T23:14:45.910Z,56.23
2019-05-30T23:17:18.915Z,55.36
2019-05-30T23:19:51.680Z,56.17
2019-05-30T23:22:25.903Z,56.51
2019-05-30T23:24:57.977Z,56.32
2019-05-30T23:27:30.340Z,57.03
2019-05-30T23:30:02.411Z,56.15
2019-05-30T23:32:35.290Z,56.91
2019-05-30T23:35:08.563Z,56.52
2019-05-30T23:37:40.650Z,55.52
2019-05-30T23:40:13.005Z,56.40
2019-05-30T23:42:44.694Z,56.95
2019-05-30T23:45:19.213Z,57.62
2019-05-30T23:47:51.981Z,57.30
2019-05-30T23:50:23.717Z,56.09
2019-05-30T23:52:56.280Z,56.70
2019-05-30T23:55:28.183Z,56.24
2019-05-30T23:58:01.472Z,55.81
